createdAt,value
2017-09-12T00:00:18.867Z,996.94
2017-09-12T00:01:27.823Z,996.95
2017-09-12T00:02:36.484Z,996.94
2017-09-12T00:03:46.074Z,996.98
2017-09-12T00:04:55.047Z,996.93
2017-09-12T00:06:04.630Z,996.91
2017-09-12T00:07:13.583Z,996.99
2017-09-12T00:08:22.866Z,996.97
2017-09-12T00:09:31.840Z,996.95
2017-09-12T00:10:40.806Z,996.92
2017-09-12T00:11:50.450Z,996.92
2017-09-12T00:12:59.736Z,996.92
2017-09-12T00:14:09.010Z,996.93
2017-09-12T00:15:17.664Z,996.96
2017-09-12T00:16:26.930Z,996.93
2017-09-12T00:17:36.212Z,996.93
2017-09-12T00:18:45.187Z,996.95
2017-09-12T00:19:54.207Z,996.99
2017-09-12T00:21:03.480Z,996.96
2017-09-12T00:22:12.442Z,996.96
2017-09-12T00:23:21.446Z,996.99
2017-09-12T00:24:30.719Z,997.05
2017-09-12T00:25:39.991Z,997.06
2017-09-12T00:26:48.954Z,997.04
2017-09-12T00:27:57.907Z,997.08
2017-09-12T00:29:06.555Z,997.08
2017-09-12T00:30:15.225Z,997.09
2017-09-12T00:31:24.815Z,997.1
2017-09-12T00:32:33.774Z,997.12
2017-09-12T00:33:42.428Z,997.12
2017-09-12T00:35:23.489Z,997.14
2017-09-12T00:36:32.764Z,997.14
2017-09-12T00:37:42.045Z,997.15
2017-09-12T00:38:51.322Z,997.13
2017-09-12T00:40:00.605Z,997.17
2017-09-12T00:41:09.563Z,997.15
2017-09-12T00:42:18.521Z,997.17
2017-09-12T00:43:27.244Z,997.12
2017-09-12T00:44:36.844Z,997.17
2017-09-12T00:45:46.455Z,997.13
2017-09-12T00:46:55.118Z,997.18
2017-09-12T00:48:04.085Z,997.22
2017-09-12T00:49:13.371Z,997.19
2017-09-12T00:50:22.663Z,997.21
2017-09-12T00:51:31.618Z,997.24
2017-09-12T00:52:41.529Z,997.22
2017-09-12T00:53:50.495Z,997.21
2017-09-12T00:54:59.463Z,997.19
2017-09-12T00:56:08.425Z,997.16
2017-09-12T00:57:17.378Z,997.19
2017-09-12T00:58:26.029Z,997.14
2017-09-12T00:59:34.683Z,997.11
2017-09-12T01:00:44.601Z,997.11
2017-09-12T01:01:53.566Z,997.1
2017-09-12T01:03:02.239Z,997.07
2017-09-12T01:04:11.199Z,997.11
2017-09-12T01:05:20.786Z,997.08
2017-09-12T01:06:29.748Z,997.16
2017-09-12T01:07:38.709Z,997.13
2017-09-12T01:08:47.984Z,997.16
2017-09-12T01:09:56.635Z,997.19
2017-09-12T01:11:05.595Z,997.19
2017-09-12T01:12:14.564Z,997.21
2017-09-12T01:13:23.209Z,997.21
2017-09-12T01:14:32.487Z,997.23
2017-09-12T01:15:41.138Z,997.3
2017-09-12T01:16:50.420Z,997.28
2017-09-12T01:17:59.090Z,997.28
2017-09-12T01:19:08.048Z,997.32
2017-09-12T01:20:17.024Z,997.32
2017-09-12T01:21:25.990Z,997.33
2017-09-12T01:22:35.898Z,997.36
2017-09-12T01:23:45.186Z,997.35
2017-09-12T01:24:54.161Z,997.36
2017-09-12T01:26:02.817Z,997.34
2017-09-12T01:27:12.419Z,997.33
2017-09-12T01:28:21.453Z,997.35
2017-09-12T01:29:30.427Z,997.39
2017-09-12T01:30:39.082Z,997.39
2017-09-12T01:31:48.362Z,997.38
2017-09-12T01:32:57.012Z,997.35
2017-09-12T01:34:05.984Z,997.36
2017-09-12T01:35:14.947Z,997.36
2017-09-12T01:36:23.903Z,997.33
2017-09-12T01:37:33.195Z,997.34
2017-09-12T01:38:42.157Z,997.33
2017-09-12T01:39:51.147Z,997.38
2017-09-12T01:41:00.422Z,997.37
2017-09-12T01:42:09.413Z,997.35
2017-09-12T01:43:18.064Z,997.37
2017-09-12T01:44:26.733Z,997.36
2017-09-12T01:45:35.381Z,997.33
2017-09-12T01:46:44.670Z,997.33
2017-09-12T01:47:53.632Z,997.33
2017-09-12T01:49:02.603Z,997.31
2017-09-12T01:50:11.267Z,997.34
2017-09-12T01:51:20.553Z,997.36
2017-09-12T01:52:30.460Z,997.37
2017-09-12T01:53:39.455Z,997.34
2017-09-12T01:54:49.040Z,997.33
2017-09-12T01:55:58.639Z,997.32
2017-09-12T01:57:07.302Z,997.32
2017-09-12T01:58:16.272Z,997.29
2017-09-12T01:59:25.560Z,997.31
2017-09-12T02:00:34.530Z,997.35
2017-09-12T02:01:43.498Z,997.34
2017-09-12T02:02:52.611Z,997.36
2017-09-12T02:04:02.201Z,997.38
2017-09-12T02:05:11.184Z,997.33
2017-09-12T02:06:20.147Z,997.32
2017-09-12T02:07:29.122Z,997.37
2017-09-12T02:08:37.770Z,997.34
2017-09-12T02:09:47.358Z,997.34
2017-09-12T02:10:56.326Z,997.36
2017-09-12T02:12:05.603Z,997.38
2017-09-12T02:13:14.260Z,997.4
2017-09-12T02:14:23.849Z,997.46
2017-09-12T02:15:32.491Z,997.5
2017-09-12T02:16:41.469Z,997.49
2017-09-12T02:17:50.132Z,997.48
2017-09-12T02:18:58.793Z,997.45
2017-09-12T02:20:07.763Z,997.43
2017-09-12T02:21:17.387Z,997.42
2017-09-12T02:22:26.343Z,997.42
2017-09-12T02:23:35.372Z,997.42
2017-09-12T02:24:44.021Z,997.37
2017-09-12T02:25:52.685Z,997.37
2017-09-12T02:27:01.642Z,997.37
2017-09-12T02:28:10.923Z,997.33
2017-09-12T02:29:20.195Z,997.34
2017-09-12T02:30:28.864Z,997.32
2017-09-12T02:31:37.817Z,997.35
2017-09-12T02:32:47.429Z,997.34
2017-09-12T02:33:56.452Z,997.3
2017-09-12T02:35:05.731Z,997.35
2017-09-12T02:36:15.653Z,997.35
2017-09-12T02:37:24.938Z,997.31
2017-09-12T02:38:33.909Z,997.32
2017-09-12T02:39:43.515Z,997.33
2017-09-12T02:40:53.124Z,997.33
2017-09-12T02:42:03.361Z,997.32
2017-09-12T02:43:12.008Z,997.32
2017-09-12T02:44:20.983Z,997.29
2017-09-12T02:45:30.265Z,997.3
2017-09-12T02:46:39.560Z,997.31
2017-09-12T02:47:48.209Z,997.34
2017-09-12T02:48:57.163Z,997.33
2017-09-12T02:50:06.125Z,997.38
2017-09-12T02:51:15.107Z,997.35
2017-09-12T02:52:24.069Z,997.35
2017-09-12T02:53:32.730Z,997.38
2017-09-12T02:54:41.384Z,997.36
2017-09-12T02:55:50.990Z,997.35
2017-09-12T02:57:00.285Z,997.35
2017-09-12T02:58:08.934Z,997.4
2017-09-12T02:59:17.592Z,997.35
2017-09-12T03:00:26.562Z,997.32
2017-09-12T03:01:35.530Z,997.38
2017-09-12T03:02:44.501Z,997.36
2017-09-12T03:03:53.768Z,997.37
2017-09-12T03:05:03.043Z,997.34
2017-09-12T03:06:12.000Z,997.37
2017-09-12T03:07:21.277Z,997.35
2017-09-12T03:08:29.934Z,997.39
2017-09-12T03:09:39.229Z,997.41
2017-09-12T03:10:47.881Z,997.44
2017-09-12T03:11:56.529Z,997.43
2017-09-12T03:13:05.499Z,997.51
2017-09-12T03:14:15.128Z,997.55
2017-09-12T03:15:24.136Z,997.56
2017-09-12T03:16:33.107Z,997.59
2017-09-12T03:17:43.014Z,997.57
2017-09-12T03:18:51.660Z,997.6
2017-09-12T03:20:00.943Z,997.55
2017-09-12T03:21:10.233Z,997.58
2017-09-12T03:22:19.199Z,997.57
2017-09-12T03:23:28.474Z,997.58
2017-09-12T03:24:37.469Z,997.63
2017-09-12T03:25:46.427Z,997.68
2017-09-12T03:26:56.016Z,997.62
2017-09-12T03:28:04.670Z,997.64
2017-09-12T03:29:13.645Z,997.65
2017-09-12T03:30:22.914Z,997.64
2017-09-12T03:31:32.523Z,997.66
2017-09-12T03:32:41.257Z,997.72
2017-09-12T03:33:50.228Z,997.75
2017-09-12T03:34:59.191Z,997.69
2017-09-12T03:36:08.173Z,997.75
2017-09-12T03:37:17.469Z,997.77
2017-09-12T03:38:26.427Z,997.81
2017-09-12T03:39:35.703Z,997.79
2017-09-12T03:40:44.974Z,997.81
2017-09-12T03:41:54.257Z,997.81
2017-09-12T03:43:03.216Z,997.8
2017-09-12T03:44:12.182Z,997.84
2017-09-12T03:45:21.151Z,997.83
2017-09-12T03:46:30.119Z,997.86
2017-09-12T03:47:39.400Z,997.92
2017-09-12T03:48:48.051Z,997.91
2017-09-12T03:49:57.029Z,997.97
2017-09-12T03:51:05.992Z,997.93
2017-09-12T03:52:14.957Z,997.98
2017-09-12T03:53:24.234Z,998
2017-09-12T03:54:33.502Z,998.01
2017-09-12T03:55:42.800Z,998.05
2017-09-12T03:56:52.075Z,998.08
2017-09-12T03:58:00.736Z,998.06
2017-09-12T03:59:09.697Z,998.1
2017-09-12T04:00:18.978Z,998.09
2017-09-12T04:01:27.637Z,998.04
2017-09-12T04:02:36.909Z,998.11
2017-09-12T04:03:46.179Z,998.13
2017-09-12T04:04:54.837Z,998.12
2017-09-12T04:06:03.495Z,998.18
2017-09-12T04:07:12.454Z,998.15
2017-09-12T04:08:21.410Z,998.15
2017-09-12T04:09:31.016Z,998.17
2017-09-12T04:10:39.977Z,998.18
2017-09-12T04:11:48.975Z,998.16
2017-09-12T04:12:58.254Z,998.23
2017-09-12T04:14:07.248Z,998.17
2017-09-12T04:15:15.902Z,998.23
2017-09-12T04:16:25.494Z,998.22
2017-09-12T04:17:34.782Z,998.23
2017-09-12T04:18:43.734Z,998.26
2017-09-12T04:19:52.438Z,998.24
2017-09-12T04:21:02.356Z,998.26
2017-09-12T04:22:11.352Z,998.25
2017-09-12T04:23:20.033Z,998.28
2017-09-12T04:24:29.017Z,998.25
2017-09-12T04:25:38.678Z,998.29
2017-09-12T04:26:47.332Z,998.29
2017-09-12T04:27:56.636Z,998.28
2017-09-12T04:29:05.620Z,998.27
2017-09-12T04:30:15.205Z,998.29
2017-09-12T04:31:24.510Z,998.3
2017-09-12T04:32:33.478Z,998.24
2017-09-12T04:33:43.078Z,998.3
2017-09-12T04:34:52.045Z,998.34
2017-09-12T04:36:00.706Z,998.34
2017-09-12T04:37:09.986Z,998.32
2017-09-12T04:38:19.277Z,998.34
2017-09-12T04:39:28.248Z,998.36
2017-09-12T04:40:37.215Z,998.37
2017-09-12T04:41:46.192Z,998.38
2017-09-12T04:42:54.902Z,998.4
2017-09-12T04:44:03.872Z,998.47
2017-09-12T04:45:12.906Z,998.45
2017-09-12T04:46:21.877Z,998.48
2017-09-12T04:47:31.477Z,998.46
2017-09-12T04:48:40.463Z,998.48
2017-09-12T04:49:49.492Z,998.55
2017-09-12T04:50:58.450Z,998.57
2017-09-12T04:52:07.097Z,998.6
2017-09-12T04:53:16.385Z,998.63
2017-09-12T04:54:25.359Z,998.62
2017-09-12T04:55:34.328Z,998.64
2017-09-12T04:56:43.653Z,998.69
2017-09-12T04:57:52.954Z,998.77
2017-09-12T04:59:01.939Z,998.77
2017-09-12T05:00:10.584Z,998.82
2017-09-12T05:01:19.257Z,998.85
2017-09-12T05:02:28.298Z,998.86
2017-09-12T05:03:37.281Z,998.92
2017-09-12T05:04:46.872Z,998.86
2017-09-12T05:05:55.540Z,998.88
2017-09-12T05:07:04.193Z,998.92
2017-09-12T05:08:13.544Z,998.9
2017-09-12T05:09:22.226Z,998.89
2017-09-12T05:10:31.186Z,998.87
2017-09-12T05:11:40.467Z,998.91
2017-09-12T05:12:49.206Z,998.92
2017-09-12T05:13:58.538Z,998.97
2017-09-12T05:15:07.217Z,998.97
2017-09-12T05:16:16.512Z,999.02
2017-09-12T05:17:25.804Z,998.97
2017-09-12T05:18:34.828Z,999.04
2017-09-12T05:19:43.797Z,999.05
2017-09-12T05:20:53.419Z,999.04
2017-09-12T05:22:02.705Z,999.03
2017-09-12T05:23:11.710Z,999.12
2017-09-12T05:24:20.995Z,999.13
2017-09-12T05:25:30.608Z,999.13
2017-09-12T05:26:39.578Z,999.09
2017-09-12T05:27:49.201Z,999.19
2017-09-12T05:28:58.187Z,999.23
2017-09-12T05:30:08.096Z,999.24
2017-09-12T05:31:16.746Z,999.22
2017-09-12T05:32:25.433Z,999.27
2017-09-12T05:33:34.400Z,999.24
2017-09-12T05:34:43.051Z,999.24
2017-09-12T05:35:52.667Z,999.19
2017-09-12T05:37:02.261Z,999.23
2017-09-12T05:38:11.223Z,999.25
2017-09-12T05:39:20.181Z,999.28
2017-09-12T05:40:29.458Z,999.33
2017-09-12T05:41:38.425Z,999.3
2017-09-12T05:42:47.390Z,999.31
2017-09-12T05:43:56.378Z,999.33
2017-09-12T05:45:05.344Z,999.36
2017-09-12T05:46:14.304Z,999.4
2017-09-12T05:47:23.591Z,999.36
2017-09-12T05:48:32.883Z,999.41
2017-09-12T05:49:41.870Z,999.44
2017-09-12T05:50:50.839Z,999.42
2017-09-12T05:51:59.815Z,999.5
2017-09-12T05:53:08.778Z,999.47
2017-09-12T05:54:17.440Z,999.51
2017-09-12T05:55:26.449Z,999.53
2017-09-12T05:56:35.106Z,999.56
2017-09-12T05:57:44.401Z,999.59
2017-09-12T05:58:53.687Z,999.57
2017-09-12T06:00:03.323Z,999.64
2017-09-12T06:01:12.289Z,999.62
2017-09-12T06:02:20.939Z,999.63
2017-09-12T06:03:30.849Z,999.62
2017-09-12T06:04:40.522Z,999.64
2017-09-12T06:05:49.487Z,999.67
2017-09-12T06:06:59.037Z,999.7
2017-09-12T06:08:07.703Z,999.75
2017-09-12T06:09:17.287Z,999.75
2017-09-12T06:10:26.011Z,999.75
2017-09-12T06:11:35.599Z,999.78
2017-09-12T06:12:44.882Z,999.8
2017-09-12T06:13:53.865Z,999.79
2017-09-12T06:15:03.158Z,999.86
2017-09-12T06:16:11.825Z,999.86
2017-09-12T06:17:21.129Z,999.86
2017-09-12T06:18:30.100Z,999.83
2017-09-12T06:19:39.064Z,999.84
2017-09-12T06:20:48.040Z,999.81
2017-09-12T06:21:56.712Z,999.88
2017-09-12T06:23:06.006Z,999.84
2017-09-12T06:24:15.288Z,999.88
2017-09-12T06:25:23.953Z,999.86
2017-09-12T06:26:32.929Z,999.92
2017-09-12T06:27:42.220Z,999.89
2017-09-12T06:28:51.182Z,999.92
2017-09-12T06:30:00.151Z,999.94
2017-09-12T06:31:08.806Z,999.92
2017-09-12T06:32:17.522Z,999.91
2017-09-12T06:33:26.203Z,999.94
2017-09-12T06:34:34.862Z,999.96
2017-09-12T06:35:43.873Z,999.99
2017-09-12T06:36:52.879Z,1000.01
2017-09-12T06:38:02.174Z,1000.03
2017-09-12T06:39:11.146Z,1000.05
2017-09-12T06:40:19.809Z,1000.05
2017-09-12T06:41:29.096Z,1000.09
2017-09-12T06:42:38.378Z,1000.07
2017-09-12T06:43:47.037Z,1000.08
2017-09-12T06:44:56.020Z,1000.1
2017-09-12T06:46:04.995Z,1000.12
2017-09-12T06:47:14.327Z,1000.14
2017-09-12T06:48:24.650Z,1000.12
2017-09-12T06:49:33.929Z,1000.16
2017-09-12T06:50:42.591Z,1000.18
2017-09-12T06:51:51.565Z,1000.17
2017-09-12T06:53:00.851Z,1000.2
2017-09-12T06:54:10.136Z,1000.2
2017-09-12T06:55:19.113Z,1000.22
2017-09-12T06:56:27.772Z,1000.25
2017-09-12T06:57:36.441Z,1000.25
2017-09-12T06:58:45.474Z,1000.25
2017-09-12T06:59:54.134Z,1000.3
2017-09-12T07:01:03.114Z,1000.27
2017-09-12T07:02:12.406Z,1000.29
2017-09-12T07:03:21.389Z,1000.28
2017-09-12T07:04:30.353Z,1000.39
2017-09-12T07:05:39.647Z,1000.39
2017-09-12T07:06:48.614Z,1000.4
2017-09-12T07:07:57.918Z,1000.41
2017-09-12T07:09:07.529Z,1000.44
2017-09-12T07:10:16.818Z,1000.41
2017-09-12T07:11:25.790Z,1000.47
2017-09-12T07:12:35.082Z,1000.48
2017-09-12T07:13:44.052Z,1000.47
2017-09-12T07:14:53.334Z,1000.52
2017-09-12T07:16:02.319Z,1000.51
2017-09-12T07:17:11.620Z,1000.54
2017-09-12T07:18:20.282Z,1000.56
2017-09-12T07:19:29.256Z,1000.59
2017-09-12T07:20:38.220Z,1000.58
2017-09-12T07:21:47.513Z,1000.63
2017-09-12T07:22:56.562Z,1000.61
2017-09-12T07:24:05.609Z,1000.67
2017-09-12T07:25:14.620Z,1000.69
2017-09-12T07:26:24.926Z,1000.64
2017-09-12T07:27:34.244Z,1000.67
2017-09-12T07:28:43.539Z,1000.69
2017-09-12T07:29:53.157Z,1000.69
2017-09-12T07:31:01.813Z,1000.68
2017-09-12T07:32:10.790Z,1000.71
2017-09-12T07:33:19.796Z,1000.74
2017-09-12T07:34:29.077Z,1000.76
2017-09-12T07:35:38.386Z,1000.73
2017-09-12T07:36:47.064Z,1000.73
2017-09-12T07:37:56.050Z,1000.72
2017-09-12T07:39:04.713Z,1000.75
2017-09-12T07:40:14.315Z,1000.81
2017-09-12T07:41:23.589Z,1000.81
2017-09-12T07:42:32.881Z,1000.87
2017-09-12T07:43:41.540Z,1000.85
2017-09-12T07:44:50.537Z,1000.84
2017-09-12T07:45:59.199Z,1000.81
2017-09-12T07:47:07.860Z,1000.87
2017-09-12T07:48:17.468Z,1000.84
2017-09-12T07:49:26.438Z,1000.88
2017-09-12T07:50:35.090Z,1000.91
2017-09-12T07:51:44.055Z,1000.96
2017-09-12T07:52:53.350Z,1000.9
2017-09-12T07:54:02.003Z,1000.97
2017-09-12T07:55:10.978Z,1000.98
2017-09-12T07:56:19.643Z,1000.98
2017-09-12T07:57:28.617Z,1000.98
2017-09-12T07:58:37.895Z,1001.01
2017-09-12T07:59:46.895Z,1001.05
2017-09-12T08:00:56.167Z,1001.04
2017-09-12T08:02:04.819Z,1001.12
2017-09-12T08:03:13.798Z,1001.08
2017-09-12T08:04:22.768Z,1001.09
2017-09-12T08:05:31.423Z,1001.14
2017-09-12T08:06:40.402Z,1001.16
2017-09-12T08:07:49.384Z,1001.18
2017-09-12T08:08:58.369Z,1001.24
2017-09-12T08:10:07.341Z,1001.29
2017-09-12T08:11:16.006Z,1001.25
2017-09-12T08:12:25.310Z,1001.26
2017-09-12T08:13:34.283Z,1001.3
2017-09-12T08:14:42.940Z,1001.31
2017-09-12T08:15:52.237Z,1001.35
2017-09-12T08:17:01.199Z,1001.39
2017-09-12T08:18:09.858Z,1001.44
2017-09-12T08:19:18.828Z,1001.43
2017-09-12T08:20:28.455Z,1001.4
2017-09-12T08:21:38.047Z,1001.48
2017-09-12T08:22:47.336Z,1001.49
2017-09-12T08:23:56.638Z,1001.49
2017-09-12T08:25:05.915Z,1001.5
2017-09-12T08:26:14.578Z,1001.5
2017-09-12T08:27:23.878Z,1001.49
2017-09-12T08:28:32.539Z,1001.48
2017-09-12T08:29:41.520Z,1001.47
2017-09-12T08:30:50.188Z,1001.5
2017-09-12T08:31:59.785Z,1001.52
2017-09-12T08:33:08.774Z,1001.53
2017-09-12T08:34:17.431Z,1001.48
2017-09-12T08:35:27.030Z,1001.49
2017-09-12T08:36:36.318Z,1001.5
2017-09-12T08:37:45.605Z,1001.57
2017-09-12T08:38:54.907Z,1001.52
2017-09-12T08:40:04.537Z,1001.52
2017-09-12T08:41:13.507Z,1001.54
2017-09-12T08:42:22.795Z,1001.53
2017-09-12T08:43:31.767Z,1001.54
2017-09-12T08:44:41.062Z,1001.6
2017-09-12T08:45:50.679Z,1001.61
2017-09-12T08:47:00.280Z,1001.58
2017-09-12T08:48:08.929Z,1001.63
2017-09-12T08:49:17.579Z,1001.64
2017-09-12T08:50:26.229Z,1001.59
2017-09-12T08:51:35.849Z,1001.55
2017-09-12T08:52:44.822Z,1001.66
2017-09-12T08:53:53.799Z,1001.59
2017-09-12T08:55:02.786Z,1001.66
2017-09-12T08:56:12.389Z,1001.62
2017-09-12T08:57:21.392Z,1001.67
2017-09-12T08:58:31.326Z,1001.59
2017-09-12T08:59:40.619Z,1001.65
2017-09-12T09:00:49.908Z,1001.6
2017-09-12T09:01:58.565Z,1001.65
2017-09-12T09:03:07.854Z,1001.68
2017-09-12T09:04:16.511Z,1001.66
2017-09-12T09:05:25.175Z,1001.7
2017-09-12T09:06:34.457Z,1001.71
2017-09-12T09:07:43.119Z,1001.75
2017-09-12T09:08:52.169Z,1001.73
2017-09-12T09:10:00.837Z,1001.77
2017-09-12T09:11:09.808Z,1001.76
2017-09-12T09:12:18.786Z,1001.75
2017-09-12T09:13:27.447Z,1001.77
2017-09-12T09:14:36.425Z,1001.77
2017-09-12T09:15:45.415Z,1001.79
2017-09-12T09:16:54.404Z,1001.79
2017-09-12T09:18:03.717Z,1001.82
2017-09-12T09:19:12.381Z,1001.8
2017-09-12T09:20:21.056Z,1001.82
2017-09-12T09:21:29.714Z,1001.86
2017-09-12T09:22:38.995Z,1001.88
2017-09-12T09:23:47.981Z,1001.9
2017-09-12T09:24:57.042Z,1001.88
2017-09-12T09:26:05.716Z,1001.87
2017-09-12T09:27:15.692Z,1001.92
2017-09-12T09:28:25.306Z,1001.9
2017-09-12T09:29:34.308Z,1001.88
2017-09-12T09:30:42.964Z,1001.94
2017-09-12T09:31:52.256Z,1001.94
2017-09-12T09:33:00.946Z,1001.89
2017-09-12T09:34:09.610Z,1001.91
2017-09-12T09:35:18.903Z,1001.91
2017-09-12T09:36:28.192Z,1001.84
2017-09-12T09:37:37.175Z,1001.88
2017-09-12T09:38:46.522Z,1001.83
2017-09-12T09:39:55.803Z,1001.75
2017-09-12T09:41:04.789Z,1001.74
2017-09-12T09:42:14.402Z,1001.77
2017-09-12T09:43:23.376Z,1001.76
2017-09-12T09:44:32.351Z,1001.8
2017-09-12T09:45:41.340Z,1001.81
2017-09-12T09:46:50.642Z,1001.83
2017-09-12T09:47:59.613Z,1001.87
2017-09-12T09:49:08.622Z,1001.84
2017-09-12T09:50:17.909Z,1001.89
2017-09-12T09:51:26.563Z,1001.86
2017-09-12T09:52:35.544Z,1001.92
2017-09-12T09:53:44.826Z,1001.93
2017-09-12T09:54:54.108Z,1001.89
2017-09-12T09:56:03.403Z,1001.93
2017-09-12T09:57:13.320Z,1001.9
2017-09-12T09:58:22.299Z,1001.92
2017-09-12T09:59:31.274Z,1001.92
2017-09-12T10:00:41.214Z,1001.91
2017-09-12T10:01:50.514Z,1001.94
2017-09-12T10:02:59.174Z,1001.93
2017-09-12T10:04:08.145Z,1001.95
2017-09-12T10:05:16.803Z,1001.98
2017-09-12T10:06:25.795Z,1001.96
2017-09-12T10:07:35.091Z,1001.96
2017-09-12T10:08:43.750Z,1002
2017-09-12T10:09:53.350Z,1002.03
2017-09-12T10:11:02.021Z,1002.04
2017-09-12T10:12:11.638Z,1002.01
2017-09-12T10:13:20.310Z,1002.06
2017-09-12T10:14:29.605Z,1002.08
2017-09-12T10:15:38.884Z,1002.07
2017-09-12T10:16:47.853Z,1002.02
2017-09-12T10:17:56.522Z,1002.07
2017-09-12T10:19:05.174Z,1002.07
2017-09-12T10:20:14.450Z,1002.06
2017-09-12T10:21:23.750Z,1002.13
2017-09-12T10:22:32.725Z,1002.1
2017-09-12T10:23:41.682Z,1002.15
2017-09-12T10:24:50.340Z,1002.15
2017-09-12T10:25:58.994Z,1002.14
2017-09-12T10:27:08.293Z,1002.16
2017-09-12T10:28:17.891Z,1002.13
2017-09-12T10:29:27.183Z,1002.14
2017-09-12T10:30:36.465Z,1002.19
2017-09-12T10:31:45.444Z,1002.18
2017-09-12T10:32:54.416Z,1002.17
2017-09-12T10:34:03.093Z,1002.09
2017-09-12T10:35:12.376Z,1002.13
2017-09-12T10:36:21.665Z,1002.19
2017-09-12T10:37:30.982Z,1002.19
2017-09-12T10:38:39.656Z,1002.17
2017-09-12T10:39:48.959Z,1002.21
2017-09-12T10:40:57.608Z,1002.27
2017-09-12T10:42:06.592Z,1002.22
2017-09-12T10:43:15.584Z,1002.27
2017-09-12T10:44:24.566Z,1002.31
2017-09-12T10:45:33.561Z,1002.28
2017-09-12T10:46:42.527Z,1002.29
2017-09-12T10:47:51.827Z,1002.25
2017-09-12T10:49:00.481Z,1002.36
2017-09-12T10:50:09.461Z,1002.36
2017-09-12T10:51:18.439Z,1002.38
2017-09-12T10:52:27.722Z,1002.33
2017-09-12T10:53:37.009Z,1002.38
2017-09-12T10:54:45.982Z,1002.31
2017-09-12T10:55:55.281Z,1002.39
2017-09-12T10:57:03.954Z,1002.38
2017-09-12T10:58:12.927Z,1002.4
2017-09-12T10:59:22.283Z,1002.37
2017-09-12T11:00:31.573Z,1002.37
2017-09-12T11:01:40.559Z,1002.35
2017-09-12T11:02:49.841Z,1002.41
2017-09-12T11:03:59.183Z,1002.41
2017-09-12T11:05:08.124Z,1002.43
2017-09-12T11:06:17.117Z,1002.44
2017-09-12T11:07:26.737Z,1002.47
2017-09-12T11:08:35.397Z,1002.5
2017-09-12T11:09:45.337Z,1002.42
2017-09-12T11:10:54.323Z,1002.5
2017-09-12T11:12:03.642Z,1002.46
2017-09-12T11:13:13.247Z,1002.46
2017-09-12T11:14:22.228Z,1002.48
2017-09-12T11:15:30.906Z,1002.53
2017-09-12T11:16:40.198Z,1002.52
2017-09-12T11:17:49.175Z,1002.6
2017-09-12T11:18:58.138Z,1002.65
2017-09-12T11:20:07.444Z,1002.63
2017-09-12T11:21:16.423Z,1002.65
2017-09-12T11:22:25.712Z,1002.6
2017-09-12T11:23:34.700Z,1002.61
2017-09-12T11:24:43.678Z,1002.64
2017-09-12T11:25:52.957Z,1002.67
2017-09-12T11:27:02.564Z,1002.66
2017-09-12T11:28:11.848Z,1002.65
2017-09-12T11:29:20.516Z,1002.65
2017-09-12T11:30:29.185Z,1002.68
2017-09-12T11:31:38.490Z,1002.66
2017-09-12T11:32:47.469Z,1002.65
2017-09-12T11:33:57.085Z,1002.66
2017-09-12T11:35:05.760Z,1002.65
2017-09-12T11:36:14.417Z,1002.64
2017-09-12T11:37:23.388Z,1002.67
2017-09-12T11:38:32.987Z,1002.61
2017-09-12T11:39:42.273Z,1002.64
2017-09-12T11:40:51.566Z,1002.65
2017-09-12T11:42:00.530Z,1002.63
2017-09-12T11:43:09.818Z,1002.6
2017-09-12T11:44:19.731Z,1002.61
2017-09-12T11:45:28.704Z,1002.66
2017-09-12T11:46:37.990Z,1002.66
2017-09-12T11:47:46.966Z,1002.69
2017-09-12T11:48:55.941Z,1002.73
2017-09-12T11:50:04.603Z,1002.74
2017-09-12T11:51:13.903Z,1002.74
2017-09-12T11:52:23.504Z,1002.76
2017-09-12T11:53:32.805Z,1002.76
2017-09-12T11:54:41.787Z,1002.77
2017-09-12T11:55:50.472Z,1002.76
2017-09-12T11:56:59.145Z,1002.73
2017-09-12T11:58:07.836Z,1002.79
2017-09-12T11:59:16.527Z,1002.76
2017-09-12T12:00:25.825Z,1002.81
2017-09-12T12:01:35.126Z,1002.83
2017-09-12T12:02:44.104Z,1002.82
2017-09-12T12:03:53.722Z,1002.8
2017-09-12T12:05:02.711Z,1002.84
2017-09-12T12:06:11.678Z,1002.77
2017-09-12T12:07:20.961Z,1002.83
2017-09-12T12:08:30.891Z,1002.76
2017-09-12T12:09:39.859Z,1002.8
2017-09-12T12:10:49.166Z,1002.79
2017-09-12T12:11:58.459Z,1002.8
2017-09-12T12:13:07.428Z,1002.73
2017-09-12T12:14:16.720Z,1002.75
2017-09-12T12:15:26.693Z,1002.77
2017-09-12T12:16:35.676Z,1002.78
2017-09-12T12:17:45.279Z,1002.82
2017-09-12T12:18:53.943Z,1002.83
2017-09-12T12:20:03.248Z,1002.71
2017-09-12T12:21:12.246Z,1002.8
2017-09-12T12:22:21.226Z,1002.85
2017-09-12T12:23:30.201Z,1002.85
2017-09-12T12:24:39.167Z,1002.82
2017-09-12T12:25:48.225Z,1002.84
2017-09-12T12:26:57.203Z,1002.76
2017-09-12T12:28:06.231Z,1002.75
2017-09-12T12:29:15.223Z,1002.78
2017-09-12T12:30:23.881Z,1002.81
2017-09-12T12:31:33.182Z,1002.69
2017-09-12T12:32:42.156Z,1002.69
2017-09-12T12:33:51.125Z,1002.8
2017-09-12T12:34:59.820Z,1002.81
2017-09-12T12:36:08.791Z,1002.82
2017-09-12T12:37:17.755Z,1002.79
2017-09-12T12:38:26.717Z,1002.8
2017-09-12T12:39:36.317Z,1002.77
2017-09-12T12:40:45.289Z,1002.74
2017-09-12T12:41:54.261Z,1002.79
2017-09-12T12:43:03.578Z,1002.76
2017-09-12T12:44:12.868Z,1002.79
2017-09-12T12:45:22.157Z,1002.73
2017-09-12T12:46:30.807Z,1002.78
2017-09-12T12:47:39.469Z,1002.77
2017-09-12T12:48:48.430Z,1002.75
2017-09-12T12:49:58.020Z,1002.81
2017-09-12T12:51:07.029Z,1002.79
2017-09-12T12:52:16.011Z,1002.82
2017-09-12T12:53:24.982Z,1002.83
2017-09-12T12:54:34.263Z,1002.88
2017-09-12T12:55:44.187Z,1002.87
2017-09-12T12:56:53.159Z,1002.89
2017-09-12T12:58:02.148Z,1002.9
2017-09-12T12:59:11.117Z,1002.87
2017-09-12T13:00:20.102Z,1002.89
2017-09-12T13:01:29.389Z,1002.93
2017-09-12T13:02:38.372Z,1002.93
2017-09-12T13:03:47.985Z,1002.88
2017-09-12T13:04:56.965Z,1002.89
2017-09-12T13:06:05.624Z,1002.94
2017-09-12T13:07:14.692Z,1002.91
2017-09-12T13:08:23.673Z,1002.95
2017-09-12T13:09:32.651Z,1002.91
2017-09-12T13:10:41.948Z,1002.9
2017-09-12T13:11:51.240Z,1002.97
2017-09-12T13:13:00.841Z,1002.92
2017-09-12T13:14:10.144Z,1002.99
2017-09-12T13:15:18.814Z,1003.03
2017-09-12T13:16:27.797Z,1002.97
2017-09-12T13:17:36.769Z,1003.07
2017-09-12T13:18:45.749Z,1002.93
2017-09-12T13:19:56.046Z,1002.96
2017-09-12T13:21:04.727Z,1003
2017-09-12T13:22:13.712Z,1003.01
2017-09-12T13:23:22.989Z,1003.11
2017-09-12T13:24:31.971Z,1003.18
2017-09-12T13:25:40.964Z,1003.22
2017-09-12T13:26:49.651Z,1003.34
2017-09-12T13:27:58.327Z,1003.43
2017-09-12T13:29:07.610Z,1003.44
2017-09-12T13:30:16.593Z,1003.49
2017-09-12T13:31:25.885Z,1003.61
2017-09-12T13:32:35.188Z,1003.66
2017-09-12T13:33:44.798Z,1003.7
2017-09-12T13:34:53.782Z,1003.77
2017-09-12T13:36:03.069Z,1003.81
2017-09-12T13:37:12.373Z,1003.89
2017-09-12T13:38:21.971Z,1003.89
2017-09-12T13:39:30.638Z,1003.92
2017-09-12T13:40:39.624Z,1003.99
2017-09-12T13:41:49.222Z,1003.89
2017-09-12T13:42:58.821Z,1003.93
2017-09-12T13:44:07.799Z,1003.86
2017-09-12T13:45:17.399Z,1003.79
2017-09-12T13:46:26.061Z,1003.79
2017-09-12T13:47:34.730Z,1003.88
2017-09-12T13:48:43.385Z,1003.88
2017-09-12T13:49:52.996Z,1003.82
2017-09-12T13:51:01.659Z,1003.83
2017-09-12T13:52:10.652Z,1003.83
2017-09-12T13:53:19.639Z,1003.83
2017-09-12T13:54:28.613Z,1003.88
2017-09-12T13:55:37.909Z,1003.96
2017-09-12T13:56:46.564Z,1003.89
2017-09-12T13:57:55.582Z,1003.89
2017-09-12T13:59:04.606Z,1003.91
2017-09-12T14:00:13.278Z,1003.94
2017-09-12T14:01:22.885Z,1003.94
2017-09-12T14:02:32.169Z,1003.92
2017-09-12T14:03:40.836Z,1003.93
2017-09-12T14:04:49.496Z,1003.94
2017-09-12T14:05:58.467Z,1003.88
2017-09-12T14:07:07.138Z,1003.88
2017-09-12T14:08:16.421Z,1003.91
2017-09-12T14:09:25.399Z,1003.87
2017-09-12T14:10:34.696Z,1003.94